Truth Or Consequences, NM

12:25 PM MST on February 13, 2016 (GMT -0700)
Lakeshore Highlands | | Change Station
CLOSE
Current Station
Personal Weather Station
Location: Elephant Butte, NM
Elevation: 4500 ft
Nearby Weather Stations

Elev 4500 ft 33.26 °N, 107.20 °W | Updated 11 minutes ago

Clear
Clear
65.4 °F
Feels Like 65.4 °F
N
4.0
Wind Variable Wind from South

Today
High -- | Low -- °F
--% Chance of Precip.
Yesterday
High -- | Low -- °F
Precip. -- in
Pressure 30.09 in
Visibility 10.0 miles
Clouds Clear
Dew Point 15 °F
Humidity 14%
Rainfall 0.00 in
Snow Depth Not available.
6:54 AM 5:51 PM
Waxing Crescent, 33% visible
METAR KTCS 131853Z AUTO 18006KT 10SM CLR 18/M11 A3022 RMK AO2 SLP189 T01831106 TSNO
Pressure 30.09 in
Visibility 10.0 miles
Clouds Clear
Dew Point 15 °F
Humidity 14%
Rainfall 0.00 in
Snow Depth Not available.
6:54 AM 5:51 PM
Waxing Crescent, 33% visible
METAR KTCS 131853Z AUTO 18006KT 10SM CLR 18/M11 A3022 RMK AO2 SLP189 T01831106 TSNO

10-Day Weather Forecast

Almanac

Astronomy

Feb. 13, 2016 Rise Set
Actual Time
Civil Twilight
Nautical Twilight
Astronomical Twilight
Moon
Length of Visible Light
Length of Day
Tomorrow will be .
, % of the Moon is Illuminated

Today's Extremes

State Highs State Lows

Community

WunderPhotos

Upload Photos

1,892,642 photos uploaded!

WunderBlog® & News

Nearby

Air Quality

  Air Quality AQ Index Pollutant
Not available.

Snow Depth

Station Depth Elevation

Earthquake Activity

City Distance Mag. Time & Date
Minimum magnitude displayed is 2.5.

Coastal Water Temperatures

Place Temperature

Stations

Nearby Weather Stations

Station Location Temp. Windchill Dew Point Humidity Wind Precip. Elev Updated Type
                   

Watches & Warnings

There are currently no watches in effect.